sensor_id;sensor_type;location;lat;lon;timestamp;P1;durP1;ratioP1;P2;durP2;ratioP2
5961;SDS011;3007;50.770;0.250;2023-09-07T00:00:35;27.88;;;25.02;;
5961;SDS011;3007;50.770;0.250;2023-09-07T00:03:02;27.02;;;24.23;;
5961;SDS011;3007;50.770;0.250;2023-09-07T00:05:30;31.10;;;28.08;;
5961;SDS011;3007;50.770;0.250;2023-09-07T00:07:59;23.35;;;20.85;;
5961;SDS011;3007;50.770;0.250;2023-09-07T00:10:26;28.50;;;25.70;;
5961;SDS011;3007;50.770;0.250;2023-09-07T00:12:53;29.50;;;26.80;;
5961;SDS011;3007;50.770;0.250;2023-09-07T00:15:19;29.70;;;26.73;;
5961;SDS011;3007;50.770;0.250;2023-09-07T00:17:48;28.08;;;24.98;;
5961;SDS011;3007;50.770;0.250;2023-09-07T00:20:16;23.08;;;20.63;;
5961;SDS011;3007;50.770;0.250;2023-09-07T00:22:44;21.77;;;19.42;;
5961;SDS011;3007;50.770;0.250;2023-09-07T00:25:11;29.67;;;26.45;;
5961;SDS011;3007;50.770;0.250;2023-09-07T00:27:38;28.95;;;26.05;;
5961;SDS011;3007;50.770;0.250;2023-09-07T00:30:05;27.75;;;24.95;;
5961;SDS011;3007;50.770;0.250;2023-09-07T00:32:35;27.15;;;24.33;;
5961;SDS011;3007;50.770;0.250;2023-09-07T00:35:04;27.88;;;25.10;;
5961;SDS011;3007;50.770;0.250;2023-09-07T00:37:31;25.00;;;22.48;;
5961;SDS011;3007;50.770;0.250;2023-09-07T00:39:58;25.13;;;21.98;;
5961;SDS011;3007;50.770;0.250;2023-09-07T00:42:25;28.92;;;25.85;;
5961;SDS011;3007;50.770;0.250;2023-09-07T00:44:53;22.73;;;20.33;;
5961;SDS011;3007;50.770;0.250;2023-09-07T00:47:19;24.65;;;22.42;;
5961;SDS011;3007;50.770;0.250;2023-09-07T00:49:47;20.52;;;18.58;;
5961;SDS011;3007;50.770;0.250;2023-09-07T00:52:16;24.58;;;21.73;;
5961;SDS011;3007;50.770;0.250;2023-09-07T00:54:43;26.35;;;23.70;;
5961;SDS011;3007;50.770;0.250;2023-09-07T00:57:10;28.15;;;25.45;;
5961;SDS011;3007;50.770;0.250;2023-09-07T00:59:37;27.52;;;24.85;;
5961;SDS011;3007;50.770;0.250;2023-09-07T01:02:04;18.83;;;16.98;;
5961;SDS011;3007;50.770;0.250;2023-09-07T01:04:31;22.00;;;19.92;;
5961;SDS011;3007;50.770;0.250;2023-09-07T01:07:01;19.85;;;17.73;;
5961;SDS011;3007;50.770;0.250;2023-09-07T01:09:35;20.73;;;18.65;;
5961;SDS011;3007;50.770;0.250;2023-09-07T01:12:06;20.42;;;18.23;;
5961;SDS011;3007;50.770;0.250;2023-09-07T01:14:35;23.48;;;21.13;;
5961;SDS011;3007;50.770;0.250;2023-09-07T01:17:02;22.98;;;20.65;;
5961;SDS011;3007;50.770;0.250;2023-09-07T01:19:30;25.88;;;23.23;;
5961;SDS011;3007;50.770;0.250;2023-09-07T01:21:59;23.70;;;21.27;;
5961;SDS011;3007;50.770;0.250;2023-09-07T01:24:26;22.55;;;20.15;;
5961;SDS011;3007;50.770;0.250;2023-09-07T01:26:55;30.30;;;27.35;;
5961;SDS011;3007;50.770;0.250;2023-09-07T01:29:23;27.60;;;25.00;;
5961;SDS011;3007;50.770;0.250;2023-09-07T01:31:50;31.55;;;28.20;;
5961;SDS011;3007;50.770;0.250;2023-09-07T01:34:16;31.52;;;28.13;;
5961;SDS011;3007;50.770;0.250;2023-09-07T01:36:43;29.42;;;26.15;;
5961;SDS011;3007;50.770;0.250;2023-09-07T01:39:11;30.27;;;27.10;;
5961;SDS011;3007;50.770;0.250;2023-09-07T01:41:38;31.08;;;28.02;;
5961;SDS011;3007;50.770;0.250;2023-09-07T01:44:05;28.88;;;25.80;;
5961;SDS011;3007;50.770;0.250;2023-09-07T01:46:32;22.90;;;20.60;;
5961;SDS011;3007;50.770;0.250;2023-09-07T01:49:00;23.17;;;20.85;;
5961;SDS011;3007;50.770;0.250;2023-09-07T01:51:27;34.45;;;30.90;;
5961;SDS011;3007;50.770;0.250;2023-09-07T01:53:54;28.50;;;25.60;;
5961;SDS011;3007;50.770;0.250;2023-09-07T01:56:23;35.03;;;31.38;;
5961;SDS011;3007;50.770;0.250;2023-09-07T01:58:49;28.33;;;25.20;;
5961;SDS011;3007;50.770;0.250;2023-09-07T02:01:20;34.22;;;30.45;;
5961;SDS011;3007;50.770;0.250;2023-09-07T02:03:48;33.00;;;29.73;;
5961;SDS011;3007;50.770;0.250;2023-09-07T02:06:15;34.42;;;31.05;;
5961;SDS011;3007;50.770;0.250;2023-09-07T02:08:41;28.13;;;25.10;;
5961;SDS011;3007;50.770;0.250;2023-09-07T02:11:08;33.80;;;30.17;;
5961;SDS011;3007;50.770;0.250;2023-09-07T02:13:36;34.55;;;31.15;;
5961;SDS011;3007;50.770;0.250;2023-09-07T02:16:03;28.13;;;25.25;;
5961;SDS011;3007;50.770;0.250;2023-09-07T02:18:31;30.45;;;27.23;;
5961;SDS011;3007;50.770;0.250;2023-09-07T02:21:01;29.30;;;26.20;;
5961;SDS011;3007;50.770;0.250;2023-09-07T02:23:28;36.33;;;32.50;;
5961;SDS011;3007;50.770;0.250;2023-09-07T02:25:55;33.38;;;29.92;;
5961;SDS011;3007;50.770;0.250;2023-09-07T02:28:22;33.72;;;30.40;;
5961;SDS011;3007;50.770;0.250;2023-09-07T02:30:51;33.53;;;30.15;;
5961;SDS011;3007;50.770;0.250;2023-09-07T02:33:18;37.85;;;34.03;;
5961;SDS011;3007;50.770;0.250;2023-09-07T02:35:45;32.97;;;29.45;;
5961;SDS011;3007;50.770;0.250;2023-09-07T02:38:14;28.05;;;25.08;;
5961;SDS011;3007;50.770;0.250;2023-09-07T02:40:41;38.10;;;33.85;;
5961;SDS011;3007;50.770;0.250;2023-09-07T02:43:08;37.55;;;33.90;;
5961;SDS011;3007;50.770;0.250;2023-09-07T02:45:35;29.23;;;26.13;;
5961;SDS011;3007;50.770;0.250;2023-09-07T02:48:04;30.30;;;27.10;;
5961;SDS011;3007;50.770;0.250;2023-09-07T02:50:32;31.23;;;27.83;;
5961;SDS011;3007;50.770;0.250;2023-09-07T02:53:00;33.15;;;29.80;;
5961;SDS011;3007;50.770;0.250;2023-09-07T02:55:28;36.33;;;32.47;;
5961;SDS011;3007;50.770;0.250;2023-09-07T02:57:55;32.83;;;29.00;;
5961;SDS011;3007;50.770;0.250;2023-09-07T03:00:23;34.70;;;31.00;;
5961;SDS011;3007;50.770;0.250;2023-09-07T03:02:50;34.55;;;31.02;;
5961;SDS011;3007;50.770;0.250;2023-09-07T03:05:19;31.40;;;28.15;;
5961;SDS011;3007;50.770;0.250;2023-09-07T03:07:46;35.72;;;32.13;;
5961;SDS011;3007;50.770;0.250;2023-09-07T03:10:13;34.85;;;31.25;;
5961;SDS011;3007;50.770;0.250;2023-09-07T03:12:40;32.55;;;29.15;;
5961;SDS011;3007;50.770;0.250;2023-09-07T03:15:07;32.35;;;28.10;;
5961;SDS011;3007;50.770;0.250;2023-09-07T03:17:34;34.75;;;31.17;;
5961;SDS011;3007;50.770;0.250;2023-09-07T03:20:01;29.77;;;26.67;;
5961;SDS011;3007;50.770;0.250;2023-09-07T03:22:39;28.05;;;25.05;;
5961;SDS011;3007;50.770;0.250;2023-09-07T03:25:07;34.10;;;30.67;;
5961;SDS011;3007;50.770;0.250;2023-09-07T03:27:36;28.83;;;25.83;;
5961;SDS011;3007;50.770;0.250;2023-09-07T03:30:03;34.15;;;30.75;;
5961;SDS011;3007;50.770;0.250;2023-09-07T03:32:30;30.70;;;25.70;;
5961;SDS011;3007;50.770;0.250;2023-09-07T03:34:58;31.60;;;28.33;;
5961;SDS011;3007;50.770;0.250;2023-09-07T03:37:25;27.58;;;24.48;;
5961;SDS011;3007;50.770;0.250;2023-09-07T03:39:54;30.45;;;27.23;;
5961;SDS011;3007;50.770;0.250;2023-09-07T03:42:21;27.88;;;24.95;;
5961;SDS011;3007;50.770;0.250;2023-09-07T03:44:48;35.38;;;31.58;;
5961;SDS011;3007;50.770;0.250;2023-09-07T03:47:15;35.15;;;31.67;;
5961;SDS011;3007;50.770;0.250;2023-09-07T03:49:42;33.88;;;30.58;;
5961;SDS011;3007;50.770;0.250;2023-09-07T03:52:09;34.92;;;31.48;;
5961;SDS011;3007;50.770;0.250;2023-09-07T03:54:36;30.95;;;27.67;;
5961;SDS011;3007;50.770;0.250;2023-09-07T03:57:05;33.78;;;30.13;;
5961;SDS011;3007;50.770;0.250;2023-09-07T03:59:32;40.47;;;36.08;;
5961;SDS011;3007;50.770;0.250;2023-09-07T04:01:59;38.85;;;34.78;;
5961;SDS011;3007;50.770;0.250;2023-09-07T04:04:25;40.35;;;35.30;;
5961;SDS011;3007;50.770;0.250;2023-09-07T04:06:52;35.70;;;28.38;;
5961;SDS011;3007;50.770;0.250;2023-09-07T04:09:19;41.75;;;37.20;;
5961;SDS011;3007;50.770;0.250;2023-09-07T04:11:46;31.08;;;27.67;;
5961;SDS011;3007;50.770;0.250;2023-09-07T04:14:14;40.40;;;34.55;;
5961;SDS011;3007;50.770;0.250;2023-09-07T04:16:42;48.17;;;41.95;;
5961;SDS011;3007;50.770;0.250;2023-09-07T04:19:08;38.00;;;33.25;;
5961;SDS011;3007;50.770;0.250;2023-09-07T04:21:35;42.95;;;37.92;;
5961;SDS011;3007;50.770;0.250;2023-09-07T04:24:03;50.15;;;43.65;;
5961;SDS011;3007;50.770;0.250;2023-09-07T04:26:31;33.58;;;28.88;;
5961;SDS011;3007;50.770;0.250;2023-09-07T04:28:59;42.60;;;38.00;;
5961;SDS011;3007;50.770;0.250;2023-09-07T04:31:27;39.28;;;34.53;;
5961;SDS011;3007;50.770;0.250;2023-09-07T04:33:54;38.00;;;30.73;;
5961;SDS011;3007;50.770;0.250;2023-09-07T04:36:20;45.40;;;40.75;;
5961;SDS011;3007;50.770;0.250;2023-09-07T04:38:48;47.28;;;42.17;;
5961;SDS011;3007;50.770;0.250;2023-09-07T04:41:15;46.78;;;41.65;;
5961;SDS011;3007;50.770;0.250;2023-09-07T04:43:42;48.50;;;41.10;;
5961;SDS011;3007;50.770;0.250;2023-09-07T04:46:09;45.72;;;39.85;;
5961;SDS011;3007;50.770;0.250;2023-09-07T04:48:37;44.10;;;38.70;;
5961;SDS011;3007;50.770;0.250;2023-09-07T04:51:05;48.33;;;42.60;;
5961;SDS011;3007;50.770;0.250;2023-09-07T04:53:34;48.40;;;41.80;;
5961;SDS011;3007;50.770;0.250;2023-09-07T04:56:02;38.67;;;34.03;;
5961;SDS011;3007;50.770;0.250;2023-09-07T04:58:30;47.75;;;42.67;;
5961;SDS011;3007;50.770;0.250;2023-09-07T05:01:01;43.47;;;38.10;;
5961;SDS011;3007;50.770;0.250;2023-09-07T05:03:29;43.08;;;38.47;;
5961;SDS011;3007;50.770;0.250;2023-09-07T05:05:57;47.22;;;42.15;;
5961;SDS011;3007;50.770;0.250;2023-09-07T05:08:24;40.78;;;36.17;;
5961;SDS011;3007;50.770;0.250;2023-09-07T05:10:54;43.47;;;39.08;;
5961;SDS011;3007;50.770;0.250;2023-09-07T05:13:21;48.45;;;43.17;;
5961;SDS011;3007;50.770;0.250;2023-09-07T05:15:49;39.78;;;34.58;;
5961;SDS011;3007;50.770;0.250;2023-09-07T05:18:16;47.78;;;40.90;;
5961;SDS011;3007;50.770;0.250;2023-09-07T05:20:43;44.30;;;37.05;;
5961;SDS011;3007;50.770;0.250;2023-09-07T05:23:12;47.65;;;40.03;;
5961;SDS011;3007;50.770;0.250;2023-09-07T05:25:43;42.65;;;37.05;;
5961;SDS011;3007;50.770;0.250;2023-09-07T05:28:12;46.67;;;38.22;;
5961;SDS011;3007;50.770;0.250;2023-09-07T05:30:39;43.03;;;37.85;;
5961;SDS011;3007;50.770;0.250;2023-09-07T05:33:06;45.20;;;40.38;;
5961;SDS011;3007;50.770;0.250;2023-09-07T05:35:34;46.78;;;37.30;;
5961;SDS011;3007;50.770;0.250;2023-09-07T05:38:01;47.60;;;42.28;;
5961;SDS011;3007;50.770;0.250;2023-09-07T05:40:30;38.20;;;34.17;;
5961;SDS011;3007;50.770;0.250;2023-09-07T05:43:00;46.08;;;39.38;;
5961;SDS011;3007;50.770;0.250;2023-09-07T05:45:28;46.33;;;41.30;;
5961;SDS011;3007;50.770;0.250;2023-09-07T05:47:55;45.92;;;41.08;;
5961;SDS011;3007;50.770;0.250;2023-09-07T05:50:22;51.47;;;41.92;;
5961;SDS011;3007;50.770;0.250;2023-09-07T05:52:49;44.13;;;37.42;;
5961;SDS011;3007;50.770;0.250;2023-09-07T05:55:16;45.25;;;39.20;;
5961;SDS011;3007;50.770;0.250;2023-09-07T05:57:44;42.53;;;35.65;;
5961;SDS011;3007;50.770;0.250;2023-09-07T06:00:12;36.63;;;31.83;;
5961;SDS011;3007;50.770;0.250;2023-09-07T06:02:40;40.70;;;36.30;;
5961;SDS011;3007;50.770;0.250;2023-09-07T06:05:07;45.70;;;38.25;;
5961;SDS011;3007;50.770;0.250;2023-09-07T06:07:35;42.10;;;37.60;;
5961;SDS011;3007;50.770;0.250;2023-09-07T06:10:02;34.92;;;31.35;;
5961;SDS011;3007;50.770;0.250;2023-09-07T06:12:30;32.03;;;28.75;;
5961;SDS011;3007;50.770;0.250;2023-09-07T06:14:58;40.00;;;35.88;;
5961;SDS011;3007;50.770;0.250;2023-09-07T06:17:25;39.38;;;35.28;;
5961;SDS011;3007;50.770;0.250;2023-09-07T06:19:53;38.78;;;33.92;;
5961;SDS011;3007;50.770;0.250;2023-09-07T06:22:20;33.45;;;29.95;;
5961;SDS011;3007;50.770;0.250;2023-09-07T06:24:47;35.22;;;31.67;;
5961;SDS011;3007;50.770;0.250;2023-09-07T06:27:13;37.63;;;32.47;;
5961;SDS011;3007;50.770;0.250;2023-09-07T06:29:40;36.45;;;32.67;;
5961;SDS011;3007;50.770;0.250;2023-09-07T06:32:08;34.50;;;30.80;;
5961;SDS011;3007;50.770;0.250;2023-09-07T06:34:35;40.22;;;30.58;;
5961;SDS011;3007;50.770;0.250;2023-09-07T06:37:02;33.28;;;29.77;;
5961;SDS011;3007;50.770;0.250;2023-09-07T06:39:29;37.58;;;33.47;;
5961;SDS011;3007;50.770;0.250;2023-09-07T06:41:56;29.15;;;26.17;;
5961;SDS011;3007;50.770;0.250;2023-09-07T06:44:23;37.42;;;33.38;;
5961;SDS011;3007;50.770;0.250;2023-09-07T06:46:50;35.53;;;31.80;;
5961;SDS011;3007;50.770;0.250;2023-09-07T06:49:18;37.28;;;32.78;;
5961;SDS011;3007;50.770;0.250;2023-09-07T06:51:45;31.90;;;28.45;;
5961;SDS011;3007;50.770;0.250;2023-09-07T06:54:12;31.13;;;27.92;;
5961;SDS011;3007;50.770;0.250;2023-09-07T06:56:39;34.80;;;31.40;;
5961;SDS011;3007;50.770;0.250;2023-09-07T06:59:06;29.98;;;26.70;;
5961;SDS011;3007;50.770;0.250;2023-09-07T07:01:32;33.05;;;29.42;;
5961;SDS011;3007;50.770;0.250;2023-09-07T07:04:00;30.20;;;26.92;;
5961;SDS011;3007;50.770;0.250;2023-09-07T07:06:28;29.67;;;26.67;;
5961;SDS011;3007;50.770;0.250;2023-09-07T07:08:55;29.27;;;26.35;;
5961;SDS011;3007;50.770;0.250;2023-09-07T07:11:22;30.42;;;27.42;;
5961;SDS011;3007;50.770;0.250;2023-09-07T07:13:49;31.50;;;28.25;;
5961;SDS011;3007;50.770;0.250;2023-09-07T07:16:16;28.50;;;25.52;;
5961;SDS011;3007;50.770;0.250;2023-09-07T07:18:44;29.50;;;26.55;;
5961;SDS011;3007;50.770;0.250;2023-09-07T07:21:10;30.17;;;27.17;;
5961;SDS011;3007;50.770;0.250;2023-09-07T07:23:39;27.02;;;24.42;;
5961;SDS011;3007;50.770;0.250;2023-09-07T07:26:06;24.35;;;22.05;;
5961;SDS011;3007;50.770;0.250;2023-09-07T07:28:33;28.27;;;25.48;;
5961;SDS011;3007;50.770;0.250;2023-09-07T07:31:06;26.25;;;23.48;;
5961;SDS011;3007;50.770;0.250;2023-09-07T07:33:33;28.48;;;25.60;;
5961;SDS011;3007;50.770;0.250;2023-09-07T07:36:00;24.52;;;22.08;;
5961;SDS011;3007;50.770;0.250;2023-09-07T07:38:30;26.75;;;24.13;;
5961;SDS011;3007;50.770;0.250;2023-09-07T07:40:58;25.95;;;23.20;;
5961;SDS011;3007;50.770;0.250;2023-09-07T07:43:25;27.85;;;25.15;;
5961;SDS011;3007;50.770;0.250;2023-09-07T07:45:52;29.30;;;26.20;;
5961;SDS011;3007;50.770;0.250;2023-09-07T07:48:19;26.65;;;23.80;;
5961;SDS011;3007;50.770;0.250;2023-09-07T07:50:46;29.15;;;26.35;;
5961;SDS011;3007;50.770;0.250;2023-09-07T07:53:13;28.55;;;25.73;;
5961;SDS011;3007;50.770;0.250;2023-09-07T07:55:40;27.17;;;24.55;;
5961;SDS011;3007;50.770;0.250;2023-09-07T07:58:09;24.23;;;21.83;;
5961;SDS011;3007;50.770;0.250;2023-09-07T08:00:36;28.17;;;25.48;;
5961;SDS011;3007;50.770;0.250;2023-09-07T08:03:04;29.33;;;26.42;;
5961;SDS011;3007;50.770;0.250;2023-09-07T08:05:32;27.83;;;25.13;;
5961;SDS011;3007;50.770;0.250;2023-09-07T08:07:59;29.27;;;26.27;;
5961;SDS011;3007;50.770;0.250;2023-09-07T08:10:26;27.35;;;24.48;;
5961;SDS011;3007;50.770;0.250;2023-09-07T08:12:53;27.10;;;24.40;;
5961;SDS011;3007;50.770;0.250;2023-09-07T08:15:22;27.15;;;24.52;;
5961;SDS011;3007;50.770;0.250;2023-09-07T08:17:50;28.08;;;25.50;;
5961;SDS011;3007;50.770;0.250;2023-09-07T08:20:17;26.50;;;24.00;;
5961;SDS011;3007;50.770;0.250;2023-09-07T08:22:44;26.90;;;24.13;;
5961;SDS011;3007;50.770;0.250;2023-09-07T08:25:11;24.40;;;21.80;;
5961;SDS011;3007;50.770;0.250;2023-09-07T08:27:39;24.25;;;21.85;;
5961;SDS011;3007;50.770;0.250;2023-09-07T08:30:10;27.65;;;24.77;;
5961;SDS011;3007;50.770;0.250;2023-09-07T08:32:39;27.83;;;25.17;;
5961;SDS011;3007;50.770;0.250;2023-09-07T08:35:06;25.40;;;22.65;;
5961;SDS011;3007;50.770;0.250;2023-09-07T08:37:37;29.48;;;26.45;;
5961;SDS011;3007;50.770;0.250;2023-09-07T08:40:05;26.15;;;23.33;;
5961;SDS011;3007;50.770;0.250;2023-09-07T08:42:33;23.65;;;21.35;;
5961;SDS011;3007;50.770;0.250;2023-09-07T08:45:02;25.50;;;22.92;;
5961;SDS011;3007;50.770;0.250;2023-09-07T08:47:31;24.55;;;22.00;;
5961;SDS011;3007;50.770;0.250;2023-09-07T08:50:01;26.33;;;23.58;;
5961;SDS011;3007;50.770;0.250;2023-09-07T08:52:31;25.67;;;23.10;;
5961;SDS011;3007;50.770;0.250;2023-09-07T08:54:58;25.08;;;22.58;;
5961;SDS011;3007;50.770;0.250;2023-09-07T08:57:26;27.30;;;24.13;;
5961;SDS011;3007;50.770;0.250;2023-09-07T08:59:55;26.60;;;23.90;;
5961;SDS011;3007;50.770;0.250;2023-09-07T09:02:22;29.95;;;26.33;;
5961;SDS011;3007;50.770;0.250;2023-09-07T09:04:50;26.27;;;23.65;;
5961;SDS011;3007;50.770;0.250;2023-09-07T09:07:18;28.20;;;25.20;;
5961;SDS011;3007;50.770;0.250;2023-09-07T09:09:46;26.10;;;23.33;;
5961;SDS011;3007;50.770;0.250;2023-09-07T09:12:13;27.65;;;24.50;;
5961;SDS011;3007;50.770;0.250;2023-09-07T09:14:41;28.48;;;25.60;;
5961;SDS011;3007;50.770;0.250;2023-09-07T09:17:11;26.25;;;23.00;;
5961;SDS011;3007;50.770;0.250;2023-09-07T09:19:39;29.58;;;26.38;;
5961;SDS011;3007;50.770;0.250;2023-09-07T09:22:06;28.98;;;26.08;;
5961;SDS011;3007;50.770;0.250;2023-09-07T09:24:34;29.63;;;26.42;;
5961;SDS011;3007;50.770;0.250;2023-09-07T09:27:02;27.63;;;24.80;;
5961;SDS011;3007;50.770;0.250;2023-09-07T09:29:29;27.63;;;24.75;;
5961;SDS011;3007;50.770;0.250;2023-09-07T09:31:59;29.58;;;26.55;;
5961;SDS011;3007;50.770;0.250;2023-09-07T09:34:30;30.90;;;27.60;;
5961;SDS011;3007;50.770;0.250;2023-09-07T09:36:59;31.02;;;27.38;;
5961;SDS011;3007;50.770;0.250;2023-09-07T09:39:27;30.02;;;27.02;;
5961;SDS011;3007;50.770;0.250;2023-09-07T09:41:55;31.48;;;28.25;;
5961;SDS011;3007;50.770;0.250;2023-09-07T09:44:24;36.55;;;31.95;;
5961;SDS011;3007;50.770;0.250;2023-09-07T09:46:51;38.67;;;34.65;;
5961;SDS011;3007;50.770;0.250;2023-09-07T09:49:20;38.63;;;34.58;;
5961;SDS011;3007;50.770;0.250;2023-09-07T09:51:48;36.65;;;32.75;;
5961;SDS011;3007;50.770;0.250;2023-09-07T09:54:16;38.13;;;34.33;;
5961;SDS011;3007;50.770;0.250;2023-09-07T09:56:43;39.20;;;34.50;;
5961;SDS011;3007;50.770;0.250;2023-09-07T09:59:14;36.40;;;32.58;;
5961;SDS011;3007;50.770;0.250;2023-09-07T10:01:43;39.53;;;35.13;;
5961;SDS011;3007;50.770;0.250;2023-09-07T10:04:12;38.85;;;34.88;;
5961;SDS011;3007;50.770;0.250;2023-09-07T10:06:49;38.53;;;33.53;;
5961;SDS011;3007;50.770;0.250;2023-09-07T10:09:17;38.33;;;34.33;;
5961;SDS011;3007;50.770;0.250;2023-09-07T10:11:50;39.25;;;34.97;;
5961;SDS011;3007;50.770;0.250;2023-09-07T10:14:19;40.25;;;35.92;;
5961;SDS011;3007;50.770;0.250;2023-09-07T10:16:47;37.60;;;33.67;;
5961;SDS011;3007;50.770;0.250;2023-09-07T10:19:16;36.88;;;33.17;;
5961;SDS011;3007;50.770;0.250;2023-09-07T10:21:44;42.17;;;37.60;;
5961;SDS011;3007;50.770;0.250;2023-09-07T10:24:11;37.75;;;33.65;;
5961;SDS011;3007;50.770;0.250;2023-09-07T10:26:55;39.83;;;35.83;;
5961;SDS011;3007;50.770;0.250;2023-09-07T10:29:24;37.65;;;33.55;;
5961;SDS011;3007;50.770;0.250;2023-09-07T10:31:51;35.88;;;32.38;;
5961;SDS011;3007;50.770;0.250;2023-09-07T10:34:18;39.78;;;35.83;;
5961;SDS011;3007;50.770;0.250;2023-09-07T10:36:47;41.17;;;35.83;;
5961;SDS011;3007;50.770;0.250;2023-09-07T10:39:18;38.95;;;34.95;;
5961;SDS011;3007;50.770;0.250;2023-09-07T10:41:45;39.55;;;35.42;;
5961;SDS011;3007;50.770;0.250;2023-09-07T10:44:13;39.50;;;35.50;;
5961;SDS011;3007;50.770;0.250;2023-09-07T10:46:41;38.42;;;34.33;;
5961;SDS011;3007;50.770;0.250;2023-09-07T10:49:10;34.85;;;31.25;;
5961;SDS011;3007;50.770;0.250;2023-09-07T10:51:41;41.65;;;34.17;;
5961;SDS011;3007;50.770;0.250;2023-09-07T10:54:14;37.40;;;33.53;;
5961;SDS011;3007;50.770;0.250;2023-09-07T10:56:43;34.17;;;30.67;;
5961;SDS011;3007;50.770;0.250;2023-09-07T10:59:10;32.53;;;29.13;;
5961;SDS011;3007;50.770;0.250;2023-09-07T11:01:38;35.60;;;31.92;;
5961;SDS011;3007;50.770;0.250;2023-09-07T11:04:07;28.85;;;25.85;;
5961;SDS011;3007;50.770;0.250;2023-09-07T11:06:36;28.52;;;25.73;;
5961;SDS011;3007;50.770;0.250;2023-09-07T11:09:03;24.40;;;21.80;;
5961;SDS011;3007;50.770;0.250;2023-09-07T11:11:34;30.13;;;27.02;;
5961;SDS011;3007;50.770;0.250;2023-09-07T11:14:01;25.85;;;23.17;;
5961;SDS011;3007;50.770;0.250;2023-09-07T11:16:29;20.58;;;18.25;;
5961;SDS011;3007;50.770;0.250;2023-09-07T11:18:59;25.48;;;22.83;;
5961;SDS011;3007;50.770;0.250;2023-09-07T11:21:29;30.23;;;27.23;;
5961;SDS011;3007;50.770;0.250;2023-09-07T11:23:57;26.50;;;23.80;;
5961;SDS011;3007;50.770;0.250;2023-09-07T11:26:24;27.85;;;24.88;;
5961;SDS011;3007;50.770;0.250;2023-09-07T11:28:51;28.40;;;25.52;;
5961;SDS011;3007;50.770;0.250;2023-09-07T11:31:18;27.73;;;24.73;;
5961;SDS011;3007;50.770;0.250;2023-09-07T11:33:46;28.55;;;25.55;;
5961;SDS011;3007;50.770;0.250;2023-09-07T11:36:15;28.08;;;25.23;;
5961;SDS011;3007;50.770;0.250;2023-09-07T11:38:43;28.85;;;23.95;;
5961;SDS011;3007;50.770;0.250;2023-09-07T11:41:11;26.33;;;23.58;;
5961;SDS011;3007;50.770;0.250;2023-09-07T11:43:37;24.48;;;21.85;;
5961;SDS011;3007;50.770;0.250;2023-09-07T11:46:06;21.88;;;19.23;;
5961;SDS011;3007;50.770;0.250;2023-09-07T11:48:34;22.38;;;20.05;;
5961;SDS011;3007;50.770;0.250;2023-09-07T11:51:00;20.08;;;18.10;;
5961;SDS011;3007;50.770;0.250;2023-09-07T11:53:31;20.02;;;17.92;;
5961;SDS011;3007;50.770;0.250;2023-09-07T11:55:58;18.67;;;16.27;;
5961;SDS011;3007;50.770;0.250;2023-09-07T11:58:25;15.13;;;13.52;;
5961;SDS011;3007;50.770;0.250;2023-09-07T12:00:52;17.75;;;15.85;;
5961;SDS011;3007;50.770;0.250;2023-09-07T12:03:20;17.30;;;14.60;;
5961;SDS011;3007;50.770;0.250;2023-09-07T12:05:53;16.65;;;15.05;;
5961;SDS011;3007;50.770;0.250;2023-09-07T12:08:19;13.68;;;12.25;;
5961;SDS011;3007;50.770;0.250;2023-09-07T12:10:50;12.85;;;11.43;;
5961;SDS011;3007;50.770;0.250;2023-09-07T12:13:17;16.60;;;13.25;;
5961;SDS011;3007;50.770;0.250;2023-09-07T12:15:44;13.18;;;11.75;;
5961;SDS011;3007;50.770;0.250;2023-09-07T12:18:10;15.48;;;12.90;;
5961;SDS011;3007;50.770;0.250;2023-09-07T12:20:37;15.80;;;14.10;;
5961;SDS011;3007;50.770;0.250;2023-09-07T12:23:04;14.02;;;11.00;;
5961;SDS011;3007;50.770;0.250;2023-09-07T12:25:31;9.88;;;8.25;;
5961;SDS011;3007;50.770;0.250;2023-09-07T12:27:59;13.85;;;10.15;;
5961;SDS011;3007;50.770;0.250;2023-09-07T12:30:26;8.52;;;6.50;;
5961;SDS011;3007;50.770;0.250;2023-09-07T12:32:53;7.68;;;6.70;;
5961;SDS011;3007;50.770;0.250;2023-09-07T12:35:20;10.55;;;8.23;;
5961;SDS011;3007;50.770;0.250;2023-09-07T12:37:47;5.93;;;4.55;;
5961;SDS011;3007;50.770;0.250;2023-09-07T12:40:14;6.53;;;4.93;;
5961;SDS011;3007;50.770;0.250;2023-09-07T12:42:41;4.70;;;4.13;;
5961;SDS011;3007;50.770;0.250;2023-09-07T12:45:12;4.38;;;3.40;;
5961;SDS011;3007;50.770;0.250;2023-09-07T12:47:40;5.40;;;3.88;;
5961;SDS011;3007;50.770;0.250;2023-09-07T12:50:07;3.75;;;3.28;;
5961;SDS011;3007;50.770;0.250;2023-09-07T12:52:34;5.15;;;3.22;;
5961;SDS011;3007;50.770;0.250;2023-09-07T12:55:02;10.88;;;3.25;;
5961;SDS011;3007;50.770;0.250;2023-09-07T12:57:30;6.38;;;4.32;;
5961;SDS011;3007;50.770;0.250;2023-09-07T12:59:56;4.80;;;4.38;;
5961;SDS011;3007;50.770;0.250;2023-09-07T13:02:25;9.07;;;6.53;;
5961;SDS011;3007;50.770;0.250;2023-09-07T13:04:53;8.38;;;6.30;;
5961;SDS011;3007;50.770;0.250;2023-09-07T13:07:20;11.10;;;8.27;;
5961;SDS011;3007;50.770;0.250;2023-09-07T13:09:47;8.52;;;7.63;;
5961;SDS011;3007;50.770;0.250;2023-09-07T13:12:14;8.20;;;7.50;;
5961;SDS011;3007;50.770;0.250;2023-09-07T13:14:41;6.93;;;6.00;;
5961;SDS011;3007;50.770;0.250;2023-09-07T13:17:09;7.85;;;6.45;;
5961;SDS011;3007;50.770;0.250;2023-09-07T13:19:40;12.93;;;7.82;;
5961;SDS011;3007;50.770;0.250;2023-09-07T13:22:07;7.30;;;6.25;;
5961;SDS011;3007;50.770;0.250;2023-09-07T13:24:34;7.65;;;5.50;;
5961;SDS011;3007;50.770;0.250;2023-09-07T13:27:01;7.82;;;4.78;;
5961;SDS011;3007;50.770;0.250;2023-09-07T13:29:28;6.05;;;5.45;;
5961;SDS011;3007;50.770;0.250;2023-09-07T13:31:56;6.15;;;5.00;;
5961;SDS011;3007;50.770;0.250;2023-09-07T13:34:24;6.10;;;5.05;;
5961;SDS011;3007;50.770;0.250;2023-09-07T13:36:52;5.70;;;4.00;;
5961;SDS011;3007;50.770;0.250;2023-09-07T13:39:19;5.65;;;4.20;;
5961;SDS011;3007;50.770;0.250;2023-09-07T13:41:46;4.43;;;4.03;;
5961;SDS011;3007;50.770;0.250;2023-09-07T13:44:13;5.05;;;3.97;;
5961;SDS011;3007;50.770;0.250;2023-09-07T13:46:40;5.40;;;3.92;;
5961;SDS011;3007;50.770;0.250;2023-09-07T13:49:08;5.60;;;4.30;;
5961;SDS011;3007;50.770;0.250;2023-09-07T13:51:35;3.88;;;3.28;;
5961;SDS011;3007;50.770;0.250;2023-09-07T13:54:06;4.28;;;2.97;;
5961;SDS011;3007;50.770;0.250;2023-09-07T13:56:33;4.55;;;3.05;;
5961;SDS011;3007;50.770;0.250;2023-09-07T13:59:01;6.18;;;3.65;;
5961;SDS011;3007;50.770;0.250;2023-09-07T14:01:28;5.20;;;3.55;;
5961;SDS011;3007;50.770;0.250;2023-09-07T14:03:55;7.38;;;5.10;;
5961;SDS011;3007;50.770;0.250;2023-09-07T14:06:22;7.20;;;4.78;;
5961;SDS011;3007;50.770;0.250;2023-09-07T14:08:49;5.20;;;3.55;;
5961;SDS011;3007;50.770;0.250;2023-09-07T14:11:17;5.18;;;4.28;;
5961;SDS011;3007;50.770;0.250;2023-09-07T14:13:44;4.60;;;3.80;;
5961;SDS011;3007;50.770;0.250;2023-09-07T14:16:14;4.20;;;3.80;;
5961;SDS011;3007;50.770;0.250;2023-09-07T14:18:44;5.35;;;3.70;;
5961;SDS011;3007;50.770;0.250;2023-09-07T14:21:13;5.55;;;4.13;;
5961;SDS011;3007;50.770;0.250;2023-09-07T14:23:42;5.28;;;3.97;;
5961;SDS011;3007;50.770;0.250;2023-09-07T14:26:09;4.18;;;3.20;;
5961;SDS011;3007;50.770;0.250;2023-09-07T14:28:37;6.88;;;4.32;;
5961;SDS011;3007;50.770;0.250;2023-09-07T14:31:04;3.90;;;3.28;;
5961;SDS011;3007;50.770;0.250;2023-09-07T14:33:32;5.78;;;3.55;;
5961;SDS011;3007;50.770;0.250;2023-09-07T14:36:03;4.60;;;3.08;;
5961;SDS011;3007;50.770;0.250;2023-09-07T14:38:30;4.38;;;3.53;;
5961;SDS011;3007;50.770;0.250;2023-09-07T14:40:59;5.28;;;3.67;;
5961;SDS011;3007;50.770;0.250;2023-09-07T14:43:26;3.85;;;3.35;;
5961;SDS011;3007;50.770;0.250;2023-09-07T14:45:55;3.92;;;3.53;;
5961;SDS011;3007;50.770;0.250;2023-09-07T14:48:22;5.55;;;4.05;;
5961;SDS011;3007;50.770;0.250;2023-09-07T14:50:50;8.15;;;4.97;;
5961;SDS011;3007;50.770;0.250;2023-09-07T14:53:17;3.88;;;3.13;;
5961;SDS011;3007;50.770;0.250;2023-09-07T14:55:44;5.30;;;3.72;;